Syracuse Hancock International Airport
KSYR : now visible

Airfield :











YOU CAN JOIN US ON...

 
LOGIN :

Register | Disclaimer

   EN    FR    IT 

 









Legend :    VFR   Marginal VFR   IFR   Intensive IFR   Very Intensive IFR
Visi :
Ceiling :
>= 8 km
>= 3000ft
5 to 8 km
1000 to 3000 ft
1500m to 5 km
500 to 1000 ft
800 to 1500m
200 to 500 ft
< 800m
< 200 ft
Symbols :   Thunderstorms  Fog  Heavy snow  Heavy precipitations  Wind > 20 kt






- Airport Elevation : 421 ft
- IATA code : SYR


KSYR - Syracuse Hancock International

CURRENT METAR :
  • 160754Z 21006KT 10SM -RA OVC018 04/01 A2968 RMK AO2 SLP050 P0000 T00440011 $

EXPIRED METARs :
  • 160654Z 23004KT 10SM -RA BKN020 BKN044 OVC070 05/01 A2970 RMK AO2 SLP055 P0000 T00500011 $
  • 160601Z 23007KT 10SM -RA OVC020 05/01 A2970 RMK AO2 P0000 T00500006 $
  • 160554Z 23006KT 10SM -RA OVC022 05/01 A2970 RMK AO2 RAB21 SLP058 P0000 60000 T00500006 10067 20050 58006 $

TAF KSYR
Valid from the 16 at 08:00 until the 17 at 06:00 UTC


160809Z 1608/1706 21006KT P6SM -RA OVC018
FM161200 24004KT 6SM BR OVC008
TEMPO 1612/1615 3SM -RA BR OVC004
FM161500 31007KT 6SM -RA BR OVC008
FM162100 32008KT P6SM -RA OVC012
KZBW FIR / North America



MET'MAP, your aeronautical weather chart ! - Copyright ORBIFLY December 2007 - Disclaimer

ORBIFLY MET'MAP TEAM :

Programming & Development : Alexandra Zaïnal
Concept & original design : Baudouin d'Aumeries
Assistance for programming : Marc-Olivier Méhu
Technical & hardware support : Manuel Goepfert

Contact : metmap@orbifly.com




SOURCES & CREDITS :

   NOAA       Earth
Advisory